ěÝzenÝ letovÚho provozu ╚eskÚ republiky
OPMET data - Ceska Republika Aktualizace: 26.09.2022 16:34:32  UTC
SIGMET / AIRMET - NIL
Warning / Vystraha - NIL
AIREP - NIL
REG QNH
REGIONAL QNH FORECAST ISSUED 2022-09-26 14:43 AREA VALID FM/TL QNH/HPA/ : LKAA 261500/261800 1001 =
 
METAR / SPECI
METAR LKBC NIL
METAR LKCS 261630Z AUTO 21007KT 9999 OVC090/// 14/08 Q1005=
METAR LKCV 261630Z 10003KT CAVOK 15/10 Q1004 NOSIG RMK BLU BLU=
METAR LKKB 261630Z 20005KT CAVOK 14/07 Q1004 NOSIG RMK BLU BLU=
METAR LKKU 261600Z VRB02KT 9999 FEW039 16/11 Q1005=
METAR LKKV 261630Z 20003KT 130V250 9999 FEW041 11/04 Q1004=
METAR LKLN 261630Z AUTO 22004KT CAVOK 13/07 Q1004=
METAR LKMT 261630Z 21007KT CAVOK 14/10 Q1005 NOSIG=
METAR LKNA 261630Z VRB02KT 9999 FEW042 14/09 Q1005 NOSIG RMK BLU BLU=
METAR LKPD 261630Z VRB01KT 9999 FEW030 15/10 Q1004 NOSIG RMK BLU BLU=
METAR LKPJ 261630Z AUTO VRB02KT CAVOK 14/10 Q1005=
METAR LKPR 261630Z 22006KT 180V270 CAVOK 14/08 Q1004 NOSIG=
METAR LKTB 261630Z 34003KT 300V010 9999 FEW048 16/09 Q1005 NOSIG=
METAR LKVO NIL
TAF
TAF LKBC NIL
TAF LKCS NIL
TAF LKCV 261100Z 2612/2712 28008KT 9999 BKN035      PROB30 TEMPO 2612/2615 7000 SHRA BKN020      TEMPO 2615/2700 CAVOK      BECMG 2616/2618 19007KT      TEMPO 2702/2712 5000 RADZ BKN013      BECMG 2709/2711 24010KT=
TAF LKKB 261100Z 2612/2712 25006KT 9999 BKN040      TEMPO 2612/2616 25014KT 6000 SHRA SCT020TCU BKN035      BECMG 2615/2617 19008KT CAVOK      BECMG 2700/2702 BKN030      TEMPO 2700/2712 7000 RA SCT015 BKN025=
TAF LKKU NIL
TAF LKKV 261100Z 2612/2718 25006KT 9999 BKN020      TEMPO 2612/2617 27010KT 7000 -SHRA SCT015TCU      BECMG 2701/2703 4000 RA BR BKN016      TEMPO 2703/2718 2000 RA BKN003=
TAF LKLN NIL
TAF LKMT 261100Z 2612/2718 22006KT 9999 BKN030      TEMPO 2612/2618 23015KT 8000 SHRA SCT025TCU      PROB30 TEMPO 2612/2617 4000 TSRA SCT020CB      BECMG 2618/2620 21003KT CAVOK      BECMG 2623/2702 0500 FG OVC003      TEMPO 2703/2708 1500 BR BKN005      BECMG 2708/2710 6000 BKN025      TEMPO 2712/2718 3000 SHRA BKN006 SCT016TCU=
TAF LKNA 261100Z 2612/2712 27010KT 9999 SCT035      PROB40 TEMPO 2612/2615 6000 SHRA BKN021      BECMG 2616/2618 CAVOK      BECMG 2700/2702 14004KT 5000 BR BKN012      TEMPO 2703/2712 0500 FG VV002=
TAF LKPD 261100Z 2612/2712 29010KT 9999 SCT020 BKN035      TEMPO 2612/2618 BKN020      PROB40 TEMPO 2612/2618 30015G25KT 7000 SHRA SCT012 BKN020CB      BECMG 2618/2620 21007KT SCT035      BECMG 2702/2705 OVC027      TEMPO 2707/2712 6000 RA BKN010 OVC020=
TAF LKPJ NIL
TAF LKPR 261100Z 2612/2718 21006KT 9999 BKN040      TEMPO 2613/2618 29010KT 9000 -SHRA SCT025TCU      BECMG 2618/2620 CAVOK      BECMG 2706/2708 22016KT 9999 BKN030      TEMPO 2708/2718 27015G30KT 6000 SHRA BKN017TCU=
TAF LKTB 261100Z 2612/2718 33007KT 9999 BKN035      TEMPO 2612/2616 23012KT 8000 SHRA SCT025TCU      PROB30 TEMPO 2612/2615 6000 TSRA SCT020CB      BECMG 2618/2620 21003KT CAVOK      BECMG 2703/2705 3500 BR NSC      TEMPO 2705/2709 1500 BR BKN003      BECMG 2709/2711 6000 BKN016      TEMPO 2711/2718 4000 RA BKN005=
TAF LKVO NIL